Time;durP1;ratioP1;P1;durP2;ratioP2;P2;SDS_P1;SDS_P2;PMS_P1;PMS_P2;Temp;Humidity;BMP_temperature;BMP_pressure;BME280_temperature;BME280_humidity;BME280_pressure;Samples;Min_cycle;Max_cycle;Signal;HPM_P1;HPM_P2
2022/02/11 00:01:15;;;;;;;8.67;4.00;;;9.00;99.90;;;;;;5102732;28;20439;-83
2022/02/11 00:06:39;;;;;;;8.63;5.25;;;9.20;99.90;;;;;;5100457;28;20313;-83
2022/02/11 00:09:06;;;;;;;7.43;4.33;;;9.10;99.90;;;;;;5100681;28;20197;-83
2022/02/11 00:11:36;;;;;;;7.50;4.40;;;9.10;99.90;;;;;;5101667;28;20451;-83
2022/02/11 00:14:07;;;;;;;9.50;5.20;;;9.20;99.90;;;;;;5106838;28;20243;-83
2022/02/11 00:16:35;;;;;;;7.10;4.37;;;9.10;99.90;;;;;;5103952;28;20504;-82
2022/02/11 00:19:03;;;;;;;7.35;4.65;;;9.10;99.90;;;;;;5106154;28;20495;-83
2022/02/11 00:21:30;;;;;;;7.90;5.10;;;9.10;99.90;;;;;;5105888;28;20204;-85
2022/02/11 00:24:00;;;;;;;7.43;4.38;;;9.20;99.90;;;;;;5108099;28;20461;-83
2022/02/11 00:26:38;;;;;;;10.15;4.75;;;9.00;99.90;;;;;;5102892;28;20217;-84
2022/02/11 00:32:09;;;;;;;9.27;4.37;;;9.20;99.90;;;;;;5066847;28;20431;-83
2022/02/11 00:34:43;;;;;;;9.27;4.43;;;9.10;99.90;;;;;;5105332;28;20444;-84
2022/02/11 00:37:19;;;;;;;6.40;4.57;;;9.10;99.90;;;;;;5104885;28;20226;-84
2022/02/11 00:40:11;;;;;;;6.83;4.77;;;9.30;99.90;;;;;;5103532;28;20618;-84
2022/02/11 00:45:42;;;;;;;7.10;4.93;;;9.30;99.90;;;;;;5069891;28;20441;-82
2022/02/11 01:02:14;;;;;;;8.13;4.97;;;9.20;99.90;;;;;;5108347;28;20231;-82
2022/02/11 01:04:42;;;;;;;12.10;5.30;;;9.20;99.90;;;;;;5110161;28;20205;-84
2022/02/11 01:07:09;;;;;;;8.03;5.40;;;9.20;99.90;;;;;;5102542;28;20548;-81
2022/02/11 01:09:38;;;;;;;8.90;5.27;;;9.10;99.90;;;;;;5101521;28;20458;-82
2022/02/11 01:12:06;;;;;;;9.85;6.03;;;9.20;99.90;;;;;;5103648;28;20462;-82
2022/02/11 01:14:37;;;;;;;9.90;5.30;;;9.20;99.90;;;;;;5103817;28;20284;-82
2022/02/11 01:17:15;;;;;;;8.73;5.43;;;9.20;99.90;;;;;;5102554;28;20496;-82
2022/02/11 01:22:43;;;;;;;7.10;5.07;;;9.20;99.90;;;;;;5097605;28;20211;-83
2022/02/11 01:25:38;;;;;;;9.90;5.20;;;9.10;99.90;;;;;;5102736;28;20434;-83
2022/02/11 01:28:12;;;;;;;6.67;4.70;;;9.30;99.90;;;;;;5100568;28;20227;-82
2022/02/11 01:31:01;;;;;;;10.60;6.03;;;9.00;99.90;;;;;;5104699;28;20450;-83
2022/02/11 01:36:33;;;;;;;10.13;5.40;;;9.00;99.90;;;;;;5098448;28;20487;-83
2022/02/11 01:39:32;;;;;;;7.47;4.90;;;8.80;99.90;;;;;;5100550;28;20459;-83
2022/02/11 01:45:14;;;;;;;9.75;4.85;;;8.70;99.90;;;;;;5108155;28;20450;-82
2022/02/11 01:50:44;;;;;;;8.73;4.55;;;8.70;99.90;;;;;;5104035;28;20673;-83
2022/02/11 01:53:21;;;;;;;8.77;4.10;;;8.80;99.90;;;;;;5102661;28;20216;-82
2022/02/11 01:56:15;;;;;;;8.48;5.20;;;9.00;99.90;;;;;;5100697;28;20437;-83
2022/02/11 02:02:04;;;;;;;9.30;5.10;;;8.90;99.90;;;;;;5063011;28;20189;-83
2022/02/11 02:05:10;;;;;;;8.27;4.63;;;8.80;99.90;;;;;;5101817;28;20500;-82
2022/02/11 02:13:23;;;;;;;8.90;4.60;;;8.90;99.90;;;;;;5102037;28;20251;-83
2022/02/11 02:16:24;;;;;;;7.40;3.95;;;8.90;99.90;;;;;;5099830;28;20777;-83
2022/02/11 02:39:16;;;;;;;6.45;3.33;;;8.40;99.90;;;;;;5099014;28;20446;-83
2022/02/11 02:58:12;;;;;;;5.35;2.83;;;8.10;99.90;;;;;;5098947;28;20243;-83
2022/02/11 03:50:41;;;;;;;4.03;1.85;;;7.30;99.90;;;;;;5137083;28;20231;-82
2022/02/11 03:57:00;;;;;;;5.43;1.40;;;6.60;99.90;;;;;;5136316;27;1319397;-84
2022/02/11 04:27:57;;;;;;;3.40;2.28;;;5.40;99.90;;;;;;5137821;27;20212;-83
2022/02/11 05:00:11;;;;;;;4.10;2.72;;;4.60;99.90;;;;;;5124522;28;20213;-87
2022/02/11 05:02:39;;;;;;;4.25;2.88;;;5.00;99.90;;;;;;5124308;28;20199;-87
2022/02/11 05:05:08;;;;;;;4.35;3.10;;;4.70;99.90;;;;;;5128659;28;20283;-85
2022/02/11 05:07:35;;;;;;;4.95;3.03;;;5.10;99.90;;;;;;5117907;28;20224;-85
2022/02/11 05:10:02;;;;;;;4.45;3.05;;;5.10;99.90;;;;;;5116903;28;20296;-85
2022/02/11 05:12:29;;;;;;;5.13;3.15;;;5.20;99.90;;;;;;5111778;28;20276;-88
2022/02/11 05:14:56;;;;;;;4.90;3.50;;;4.80;99.90;;;;;;5106429;28;20315;-88
2022/02/11 05:17:23;;;;;;;4.20;3.28;;;4.90;99.90;;;;;;5118650;28;20264;-85
2022/02/11 05:19:51;;;;;;;4.40;3.05;;;5.40;99.90;;;;;;5116821;28;20229;-86
2022/02/11 05:22:18;;;;;;;4.78;3.53;;;5.10;99.90;;;;;;5112919;28;20208;-87
2022/02/11 05:24:45;;;;;;;4.43;3.03;;;5.40;99.90;;;;;;5106807;28;20213;-87
2022/02/11 05:27:12;;;;;;;5.28;3.05;;;5.20;99.90;;;;;;5113008;28;20210;-85
2022/02/11 05:29:38;;;;;;;5.53;3.33;;;5.40;99.90;;;;;;5114594;28;20212;-86
2022/02/11 05:32:06;;;;;;;5.25;3.47;;;4.90;99.90;;;;;;5119316;28;20232;-86
2022/02/11 05:34:33;;;;;;;3.97;2.40;;;5.30;99.90;;;;;;5111765;28;20248;-88
2022/02/11 05:37:01;;;;;;;4.15;2.60;;;5.50;99.90;;;;;;5104834;28;20356;-86
2022/02/11 05:39:28;;;;;;;4.30;2.85;;;5.20;99.90;;;;;;5105146;28;20225;-87
2022/02/11 05:41:55;;;;;;;4.15;2.50;;;5.60;99.90;;;;;;5105472;28;20202;-88
2022/02/11 05:44:22;;;;;;;5.03;2.75;;;5.50;99.90;;;;;;5107756;28;20208;-87
2022/02/11 05:46:50;;;;;;;4.28;2.70;;;5.10;99.90;;;;;;5112280;28;20268;-88
2022/02/11 05:49:17;;;;;;;4.57;2.72;;;5.40;99.90;;;;;;5106544;28;20250;-88
2022/02/11 05:51:44;;;;;;;4.47;2.95;;;5.00;99.90;;;;;;5103671;28;20665;-87
2022/02/11 05:54:13;;;;;;;5.00;2.70;;;5.10;99.90;;;;;;5103016;28;20225;-88
2022/02/11 05:56:39;;;;;;;4.50;3.20;;;5.30;99.90;;;;;;5103054;28;20244;-87
2022/02/11 05:59:06;;;;;;;5.05;2.70;;;4.90;99.90;;;;;;5106853;28;20342;-86
2022/02/11 06:01:33;;;;;;;6.50;3.20;;;4.90;99.90;;;;;;5111017;28;20205;-86
2022/02/11 06:04:00;;;;;;;5.10;3.47;;;4.80;99.90;;;;;;5105915;28;20211;-88
2022/02/11 06:06:27;;;;;;;4.50;2.97;;;5.30;99.90;;;;;;5104262;28;20273;-87
2022/02/11 06:08:54;;;;;;;6.93;3.70;;;5.40;99.90;;;;;;5105126;28;20312;-86
2022/02/11 06:11:22;;;;;;;6.75;3.55;;;5.50;99.90;;;;;;5102856;28;20243;-86
2022/02/11 06:13:49;;;;;;;5.65;3.10;;;5.00;99.90;;;;;;5103117;28;20216;-87
2022/02/11 06:16:16;;;;;;;9.15;3.63;;;5.60;99.90;;;;;;5102200;28;20715;-87
2022/02/11 06:18:42;;;;;;;5.88;3.35;;;5.80;99.90;;;;;;5104800;28;20232;-86
2022/02/11 06:21:09;;;;;;;4.82;3.10;;;5.80;99.90;;;;;;5106897;28;20219;-87
2022/02/11 06:23:36;;;;;;;5.80;3.53;;;5.60;99.90;;;;;;5104899;28;20202;-86
2022/02/11 06:26:03;;;;;;;5.32;3.10;;;5.50;99.90;;;;;;5106821;28;20209;-87
2022/02/11 06:28:31;;;;;;;5.57;3.30;;;5.60;99.90;;;;;;5104762;28;20289;-87
2022/02/11 06:30:58;;;;;;;8.25;3.50;;;5.40;99.90;;;;;;5103934;28;20259;-87
2022/02/11 06:33:25;;;;;;;6.25;3.75;;;5.50;99.90;;;;;;5105123;28;20280;-86
2022/02/11 06:35:52;;;;;;;8.02;3.63;;;5.40;99.90;;;;;;5109870;28;20224;-87
2022/02/11 06:38:19;;;;;;;6.85;3.60;;;5.00;99.90;;;;;;5109141;28;20250;-88
2022/02/11 06:40:46;;;;;;;7.55;3.90;;;5.40;99.90;;;;;;5109202;28;20204;-86
2022/02/11 06:43:14;;;;;;;5.55;3.40;;;5.10;99.90;;;;;;5116935;28;20287;-87
2022/02/11 06:45:43;;;;;;;7.40;3.60;;;5.50;99.90;;;;;;5111443;28;20194;-88
2022/02/11 06:48:09;;;;;;;7.50;3.67;;;5.80;99.90;;;;;;5105634;28;20285;-88
2022/02/11 06:50:36;;;;;;;12.95;4.40;;;5.20;99.90;;;;;;5106229;28;20268;-87
2022/02/11 06:53:03;;;;;;;8.80;4.05;;;5.10;99.90;;;;;;5106541;28;20213;-87
2022/02/11 06:55:30;;;;;;;7.15;3.70;;;5.60;99.90;;;;;;5106524;28;20240;-89
2022/02/11 06:57:57;;;;;;;7.32;3.35;;;5.50;99.90;;;;;;5107237;28;20248;-87
2022/02/11 07:00:34;;;;;;;;;;;;;;;;;;;;;
2022/02/11 07:03:04;;;;;;;5.85;3.17;;;5.10;99.90;;;;;;5111817;28;20217;-87
2022/02/11 07:05:31;;;;;;;8.27;4.30;;;5.40;99.90;;;;;;5112209;28;20221;-87
2022/02/11 07:07:58;;;;;;;6.93;4.22;;;4.80;99.90;;;;;;5114322;28;20294;-86
2022/02/11 07:10:25;;;;;;;5.40;3.90;;;5.30;99.90;;;;;;5114574;28;20214;-87
2022/02/11 07:12:52;;;;;;;9.30;3.97;;;5.50;99.90;;;;;;5114228;28;20549;-87
2022/02/11 07:15:19;;;;;;;5.88;3.90;;;5.10;99.90;;;;;;5113015;28;20239;-86
2022/02/11 07:17:45;;;;;;;9.80;4.40;;;5.60;99.90;;;;;;5110447;28;20224;-86
2022/02/11 07:20:14;;;;;;;7.43;3.75;;;5.90;99.90;;;;;;5112654;28;20704;-86
2022/02/11 07:22:42;;;;;;;7.78;3.83;;;6.10;99.90;;;;;;5112526;28;20560;-87
2022/02/11 07:25:11;;;;;;;6.28;4.30;;;5.90;99.90;;;;;;5109065;28;20269;-87
2022/02/11 07:27:38;;;;;;;7.25;3.60;;;5.80;99.90;;;;;;5109227;28;20244;-88
2022/02/11 07:30:08;;;;;;;6.30;3.85;;;5.50;99.90;;;;;;5111238;28;20193;-87
2022/02/11 07:32:34;;;;;;;6.63;3.63;;;5.50;99.90;;;;;;5110420;28;20242;-87
2022/02/11 07:35:05;;;;;;;10.57;4.75;;;5.20;99.90;;;;;;5109888;28;20219;-87
2022/02/11 07:37:35;;;;;;;8.55;3.92;;;5.40;99.90;;;;;;5108896;28;20244;-88
2022/02/11 07:40:03;;;;;;;7.00;3.92;;;5.40;99.90;;;;;;5107345;28;20258;-89
2022/02/11 07:42:33;;;;;;;6.97;4.63;;;5.30;99.90;;;;;;5107273;28;20236;-87
2022/02/11 07:45:00;;;;;;;11.73;6.35;;;5.30;99.90;;;;;;5106830;28;20210;-87
2022/02/11 07:47:27;;;;;;;6.97;4.55;;;4.80;99.90;;;;;;5106009;28;20254;-88
2022/02/11 07:49:55;;;;;;;8.77;5.13;;;5.20;99.90;;;;;;5110620;28;20197;-87
2022/02/11 07:52:22;;;;;;;7.15;4.40;;;5.30;99.90;;;;;;5109460;28;20244;-87
2022/02/11 07:54:50;;;;;;;6.78;4.00;;;5.40;99.90;;;;;;5108416;28;20211;-88
2022/02/11 07:57:20;;;;;;;7.40;3.75;;;5.40;99.90;;;;;;5109378;28;20209;-88
2022/02/11 07:59:49;;;;;;;5.22;3.55;;;5.00;99.90;;;;;;5113154;28;20228;-87
2022/02/11 08:02:18;;;;;;;6.45;3.35;;;5.30;99.90;;;;;;5110146;28;20230;-88
2022/02/11 08:04:45;;;;;;;7.50;4.22;;;5.20;99.90;;;;;;5113515;28;20207;-87
2022/02/11 08:07:16;;;;;;;7.18;3.40;;;5.40;99.90;;;;;;5110430;28;20213;-86
2022/02/11 08:09:43;;;;;;;5.85;3.50;;;5.60;99.90;;;;;;5115817;28;20207;-88
2022/02/11 08:12:13;;;;;;;5.18;3.17;;;5.40;99.90;;;;;;5112147;28;20257;-88
2022/02/11 08:14:40;;;;;;;7.25;3.30;;;5.70;99.90;;;;;;5110089;28;20225;-86
2022/02/11 08:17:07;;;;;;;6.63;4.00;;;5.40;99.90;;;;;;5109759;28;20226;-87
2022/02/11 08:19:34;;;;;;;11.55;3.50;;;5.80;99.90;;;;;;5110315;28;20213;-88
2022/02/11 08:22:00;;;;;;;5.68;3.40;;;5.80;99.90;;;;;;5111234;28;20212;-87
2022/02/11 08:24:27;;;;;;;5.07;2.60;;;6.00;99.90;;;;;;5111955;28;20206;-87
2022/02/11 08:26:55;;;;;;;14.85;3.80;;;5.60;99.90;;;;;;5113809;28;20206;-88
2022/02/11 08:29:25;;;;;;;6.55;3.05;;;5.50;99.90;;;;;;5109098;28;20248;-88
2022/02/11 08:31:55;;;;;;;5.50;3.33;;;5.60;99.90;;;;;;5110636;28;20205;-87
2022/02/11 08:34:22;;;;;;;7.95;3.13;;;6.10;99.90;;;;;;5110385;28;20193;-87
2022/02/11 08:36:49;;;;;;;9.18;3.00;;;5.70;99.90;;;;;;5108948;28;20235;-89
2022/02/11 08:39:16;;;;;;;6.10;2.85;;;5.90;99.90;;;;;;5110550;28;20276;-85
2022/02/11 08:41:44;;;;;;;6.70;2.30;;;5.50;99.90;;;;;;5110028;28;20209;-89
2022/02/11 08:44:13;;;;;;;5.88;2.88;;;5.50;99.90;;;;;;5109182;28;20209;-89
2022/02/11 08:46:43;;;;;;;5.32;3.10;;;5.50;99.90;;;;;;5112443;28;20224;-89
2022/02/11 08:49:10;;;;;;;8.20;3.40;;;5.70;99.90;;;;;;5111636;28;20254;-89
2022/02/11 08:51:39;;;;;;;8.60;3.38;;;5.60;99.90;;;;;;5111075;28;20215;-89
2022/02/11 08:54:07;;;;;;;6.43;3.10;;;5.70;99.90;;;;;;5111368;28;20239;-86
2022/02/11 08:56:38;;;;;;;7.88;2.88;;;5.70;99.90;;;;;;5113847;28;20230;-88
2022/02/11 08:59:09;;;;;;;10.10;2.70;;;5.30;99.90;;;;;;5112587;28;20225;-88
2022/02/11 09:01:36;;;;;;;6.70;2.92;;;5.40;99.90;;;;;;5112080;28;20224;-89
2022/02/11 09:04:04;;;;;;;7.35;2.72;;;5.80;99.90;;;;;;5111644;28;20212;-88
2022/02/11 09:06:32;;;;;;;7.75;2.55;;;5.70;99.90;;;;;;5111541;28;20200;-88
2022/02/11 09:09:00;;;;;;;9.90;3.40;;;5.80;99.90;;;;;;5112677;28;20218;-89
2022/02/11 09:11:27;;;;;;;5.00;2.75;;;6.00;99.90;;;;;;5116454;28;20221;-87
2022/02/11 09:13:57;;;;;;;5.88;3.08;;;6.00;99.90;;;;;;5116543;28;20206;-88
2022/02/11 09:16:24;;;;;;;4.72;2.25;;;6.10;99.90;;;;;;5113830;28;20241;-88
2022/02/11 09:18:52;;;;;;;6.35;2.40;;;6.10;99.90;;;;;;5113453;28;20251;-88
2022/02/11 09:21:20;;;;;;;6.90;2.53;;;6.20;99.90;;;;;;5117042;28;20239;-87
2022/02/11 09:23:48;;;;;;;6.18;2.95;;;6.20;99.90;;;;;;5112331;28;20264;-87
2022/02/11 09:26:16;;;;;;;11.38;3.28;;;6.30;99.90;;;;;;5109880;28;20295;-87
2022/02/11 09:28:43;;;;;;;6.53;3.17;;;6.00;99.90;;;;;;5106647;28;20287;-87
2022/02/11 09:31:11;;;;;;;6.95;2.78;;;6.00;99.90;;;;;;5108628;28;20250;-87
2022/02/11 09:33:39;;;;;;;5.07;2.63;;;6.30;99.90;;;;;;5113485;28;20232;-87
2022/02/11 09:36:07;;;;;;;7.57;3.00;;;6.20;99.90;;;;;;5116072;28;20251;-86
2022/02/11 09:38:36;;;;;;;8.27;3.00;;;6.50;99.90;;;;;;5116110;28;20252;-87
2022/02/11 09:41:04;;;;;;;4.88;2.78;;;6.50;99.90;;;;;;5116615;28;20207;-86
2022/02/11 09:43:31;;;;;;;6.45;2.30;;;6.80;99.90;;;;;;5111587;28;20191;-85
2022/02/11 09:45:58;;;;;;;8.70;3.60;;;6.70;99.90;;;;;;5108647;28;20221;-85
2022/02/11 09:48:25;;;;;;;7.80;2.60;;;6.60;99.90;;;;;;5110539;28;20297;-86
2022/02/11 09:50:55;;;;;;;5.10;2.90;;;6.70;99.90;;;;;;5109909;28;20239;-87
2022/02/11 09:53:27;;;;;;;7.55;2.30;;;6.70;99.90;;;;;;5109200;28;20213;-88
2022/02/11 09:56:01;;;;;;;8.18;3.10;;;7.00;99.90;;;;;;5110428;28;20223;-89
2022/02/11 09:58:30;;;;;;;6.25;2.97;;;7.00;99.90;;;;;;5109496;28;20224;-87
2022/02/11 10:00:57;;;;;;;8.73;3.50;;;7.00;99.90;;;;;;5112605;28;20200;-85
2022/02/11 10:03:29;;;;;;;7.55;2.50;;;6.90;99.90;;;;;;5113734;28;20583;-87
2022/02/11 10:06:00;;;;;;;6.43;3.03;;;6.40;99.90;;;;;;5112247;28;20184;-86
2022/02/11 10:08:29;;;;;;;10.70;2.65;;;6.90;99.90;;;;;;5114936;28;20213;-86
2022/02/11 10:10:58;;;;;;;6.88;3.05;;;6.90;99.90;;;;;;5113043;28;20332;-87
2022/02/11 10:13:30;;;;;;;5.43;2.42;;;6.90;99.90;;;;;;5114489;28;20217;-87
2022/02/11 10:15:59;;;;;;;9.90;3.30;;;7.00;99.90;;;;;;5117683;28;20213;-88
2022/02/11 10:18:30;;;;;;;8.77;3.75;;;6.80;99.90;;;;;;5117137;28;20238;-88
2022/02/11 10:21:00;;;;;;;8.07;3.10;;;7.00;99.90;;;;;;5115808;28;20203;-89
2022/02/11 10:23:31;;;;;;;8.70;3.33;;;7.10;99.90;;;;;;5116238;28;20201;-88
2022/02/11 10:26:05;;;;;;;8.35;2.88;;;7.10;99.90;;;;;;5116725;28;20200;-86
2022/02/11 10:28:35;;;;;;;7.05;2.20;;;7.10;99.90;;;;;;5113735;28;20231;-89
2022/02/11 10:31:14;;;;;;;5.25;2.08;;;7.50;99.90;;;;;;5115965;28;20191;-87
2022/02/11 10:34:03;;;;;;;6.32;2.45;;;7.60;99.90;;;;;;5113607;28;20189;-88
2022/02/11 10:36:32;;;;;;;5.88;2.40;;;7.60;99.90;;;;;;5112531;28;20230;-85
2022/02/11 10:39:08;;;;;;;5.80;2.53;;;7.70;99.90;;;;;;5109907;28;20227;-89
2022/02/11 10:41:40;;;;;;;9.15;2.70;;;7.80;99.90;;;;;;5108521;28;20278;-88
2022/02/11 10:44:09;;;;;;;4.75;1.80;;;7.90;99.90;;;;;;5111618;28;20253;-88
2022/02/11 10:46:38;;;;;;;7.53;2.20;;;7.70;99.90;;;;;;5111059;28;20208;-86
2022/02/11 10:49:07;;;;;;;7.95;3.08;;;7.40;99.90;;;;;;5140098;22;20236;-88
2022/02/11 10:51:39;;;;;;;4.72;2.10;;;7.40;99.90;;;;;;5086669;28;20210;-89
2022/02/11 10:54:23;;;;;;;6.22;2.00;;;7.30;99.90;;;;;;5082464;28;20622;-88
2022/02/11 10:56:58;;;;;;;6.03;1.80;;;7.00;99.90;;;;;;5080357;28;20305;-89
2022/02/11 10:59:30;;;;;;;5.03;2.00;;;7.20;99.90;;;;;;5093066;28;20246;-88
2022/02/11 11:02:06;;;;;;;9.85;3.35;;;7.20;99.90;;;;;;5097892;28;20291;-88
2022/02/11 11:04:35;;;;;;;6.97;1.83;;;6.90;99.90;;;;;;5101464;28;20528;-88
2022/02/11 11:07:05;;;;;;;7.05;3.92;;;7.30;99.90;;;;;;5103702;28;20210;-88
2022/02/11 11:09:34;;;;;;;6.57;2.70;;;7.20;99.90;;;;;;5115048;28;20210;-88
2022/02/11 11:12:05;;;;;;;5.75;2.20;;;7.20;99.90;;;;;;5102259;28;20580;-89
2022/02/11 11:14:33;;;;;;;6.55;2.42;;;7.30;99.90;;;;;;5107505;28;20281;-90
2022/02/11 11:17:01;;;;;;;8.98;2.50;;;7.40;99.90;;;;;;5104449;28;20320;-89
2022/02/11 11:19:34;;;;;;;4.35;2.22;;;7.50;99.90;;;;;;5100677;28;20293;-89
2022/02/11 11:22:14;;;;;;;5.28;2.88;;;7.60;99.90;;;;;;5099061;28;20223;-89
2022/02/11 11:24:48;;;;;;;10.43;2.93;;;7.80;99.90;;;;;;5097420;28;20654;-89
2022/02/11 11:27:40;;;;;;;4.82;2.00;;;7.90;99.90;;;;;;5103433;28;20453;-88
2022/02/11 11:30:33;;;;;;;6.07;1.92;;;7.50;99.90;;;;;;5106448;28;20234;-88
2022/02/11 11:33:25;;;;;;;6.25;2.22;;;7.90;99.90;;;;;;5104364;28;20218;-88
2022/02/11 11:36:08;;;;;;;6.85;3.58;;;7.90;99.90;;;;;;5104093;28;20240;-89
2022/02/11 11:38:44;;;;;;;5.50;2.38;;;7.70;99.90;;;;;;5110419;28;20241;-89
2022/02/11 11:41:20;;;;;;;8.05;2.30;;;7.80;99.90;;;;;;5110876;28;20202;-90
2022/02/11 11:43:51;;;;;;;5.60;2.92;;;7.90;99.90;;;;;;5109687;28;20183;-87
2022/02/11 11:46:31;;;;;;;6.35;3.03;;;7.70;99.90;;;;;;5114557;28;20252;-89
2022/02/11 11:49:00;;;;;;;6.43;2.03;;;7.30;99.90;;;;;;5112769;28;20321;-88
2022/02/11 11:51:32;;;;;;;7.80;3.45;;;7.90;99.90;;;;;;5106427;28;20219;-87
2022/02/11 11:54:41;;;;;;;6.20;3.08;;;8.00;99.90;;;;;;5107302;28;20187;-88
2022/02/11 11:57:18;;;;;;;6.70;2.42;;;8.00;99.90;;;;;;5101825;28;20660;-89
2022/02/11 11:59:49;;;;;;;5.07;2.00;;;7.90;99.90;;;;;;5097960;28;20232;-88
2022/02/11 12:02:26;;;;;;;5.78;2.45;;;7.80;99.90;;;;;;5099183;28;20206;-89
2022/02/11 12:05:00;;;;;;;6.60;2.13;;;7.70;99.90;;;;;;5102675;28;20188;-88
2022/02/11 12:07:29;;;;;;;7.70;2.28;;;7.70;99.90;;;;;;5101500;28;20191;-88
2022/02/11 12:09:59;;;;;;;7.35;1.90;;;7.30;99.90;;;;;;5104531;28;20265;-88
2022/02/11 12:12:28;;;;;;;5.53;2.00;;;7.80;99.90;;;;;;5103013;28;20202;-88
2022/02/11 12:14:58;;;;;;;5.93;2.65;;;7.80;99.90;;;;;;5102531;28;20237;-89
2022/02/11 12:17:26;;;;;;;4.20;1.77;;;8.00;99.90;;;;;;5101670;28;20246;-89
2022/02/11 12:19:54;;;;;;;4.65;1.83;;;8.20;99.60;;;;;;5106394;28;20984;-87
2022/02/11 12:22:23;;;;;;;5.95;1.60;;;8.10;98.60;;;;;;5104986;28;20207;-87
2022/02/11 12:27:39;;;;;;;6.75;2.55;;;8.00;99.10;;;;;;5107620;28;20211;-87
2022/02/11 12:30:09;;;;;;;4.63;1.85;;;8.10;99.90;;;;;;5107467;28;20282;-88
2022/02/11 12:32:40;;;;;;;4.82;2.13;;;8.30;99.00;;;;;;5106268;28;20188;-87
2022/02/11 12:35:10;;;;;;;5.60;1.80;;;8.40;97.50;;;;;;5108125;28;20284;-87
2022/02/11 12:37:37;;;;;;;6.13;2.20;;;8.60;96.70;;;;;;5108476;28;20481;-88
2022/02/11 12:40:08;;;;;;;8.07;1.90;;;8.70;96.20;;;;;;5107413;28;20466;-87
2022/02/11 12:42:36;;;;;;;6.10;1.40;;;8.70;96.40;;;;;;5118190;28;20434;-88
2022/02/11 12:45:06;;;;;;;8.65;2.20;;;8.70;96.70;;;;;;5119692;28;20223;-86
2022/02/11 12:47:39;;;;;;;5.53;1.40;;;8.70;97.00;;;;;;5112962;28;20191;-88
2022/02/11 12:50:09;;;;;;;7.40;2.03;;;8.50;96.00;;;;;;5118002;28;20453;-88
2022/02/11 12:52:55;;;;;;;6.93;1.80;;;8.20;96.90;;;;;;5117371;28;20249;-88
2022/02/11 12:55:24;;;;;;;4.82;1.33;;;8.30;96.80;;;;;;5108008;28;20208;-88
2022/02/11 12:57:53;;;;;;;5.35;1.85;;;8.40;97.10;;;;;;5106203;28;20294;-88
2022/02/11 13:00:22;;;;;;;3.63;1.60;;;8.40;96.90;;;;;;5104401;28;20261;-88
2022/02/11 13:02:56;;;;;;;4.25;2.05;;;8.20;96.60;;;;;;5104306;28;20211;-87
2022/02/11 13:05:24;;;;;;;5.25;1.80;;;8.00;97.40;;;;;;5108580;28;20624;-87
2022/02/11 13:07:52;;;;;;;4.10;1.90;;;8.20;98.10;;;;;;5104271;28;20234;-87
2022/02/11 13:10:22;;;;;;;3.90;1.70;;;8.30;97.80;;;;;;5102778;28;20323;-85
2022/02/11 13:12:51;;;;;;;4.07;2.03;;;8.40;97.60;;;;;;5103716;28;20686;-88
2022/02/11 13:15:20;;;;;;;12.05;2.90;;;8.20;98.20;;;;;;5102445;28;20451;-88
2022/02/11 13:17:50;;;;;;;6.40;2.35;;;8.30;98.50;;;;;;5107165;28;20625;-87
2022/02/11 13:20:39;;;;;;;4.85;1.80;;;8.30;98.50;;;;;;5111653;28;20234;-87
2022/02/11 13:23:07;;;;;;;8.43;2.53;;;8.10;98.90;;;;;;5114467;28;20226;-87
2022/02/11 13:25:44;;;;;;;6.43;2.15;;;8.00;98.90;;;;;;5111608;28;20202;-87
2022/02/11 13:28:15;;;;;;;5.72;2.67;;;8.00;99.00;;;;;;5107853;28;20257;-87
2022/02/11 13:30:45;;;;;;;5.30;2.03;;;7.80;98.90;;;;;;5103703;28;20192;-87
2022/02/11 13:33:20;;;;;;;5.55;1.90;;;7.70;99.40;;;;;;5105083;28;20207;-88
2022/02/11 13:36:00;;;;;;;3.72;2.05;;;7.70;99.60;;;;;;5110182;28;20217;-88
2022/02/11 13:38:28;;;;;;;5.15;2.22;;;7.60;99.90;;;;;;5105648;28;20231;-88
2022/02/11 13:41:07;;;;;;;7.18;1.98;;;7.90;99.60;;;;;;5102804;28;20298;-88
2022/02/11 13:43:52;;;;;;;5.65;2.40;;;7.90;99.80;;;;;;5102743;28;20214;-88
2022/02/11 13:46:27;;;;;;;7.90;2.33;;;7.90;99.90;;;;;;5100761;28;20562;-88
2022/02/11 13:48:59;;;;;;;4.45;1.92;;;7.90;99.30;;;;;;5101523;28;20231;-88
2022/02/11 13:51:32;;;;;;;3.75;1.80;;;7.90;99.30;;;;;;5110683;28;20189;-88
2022/02/11 13:54:10;;;;;;;4.45;1.90;;;7.90;99.90;;;;;;5116952;28;20276;-88
2022/02/11 13:56:40;;;;;;;5.10;2.20;;;8.00;99.90;;;;;;5103792;28;20184;-88
2022/02/11 13:59:08;;;;;;;5.53;2.33;;;8.10;99.30;;;;;;5104077;28;20226;-89
2022/02/11 14:01:37;;;;;;;4.63;2.17;;;8.10;99.40;;;;;;5111058;28;20200;-87
2022/02/11 14:04:05;;;;;;;5.38;2.08;;;8.20;99.20;;;;;;5112216;28;20294;-88
2022/02/11 14:06:38;;;;;;;5.03;2.30;;;8.40;98.70;;;;;;5102850;28;20212;-88
2022/02/11 14:09:07;;;;;;;4.78;2.00;;;8.40;98.80;;;;;;5102808;28;20296;-88
2022/02/11 14:11:38;;;;;;;6.55;2.22;;;8.40;98.60;;;;;;5116770;28;20219;-87
2022/02/11 14:14:21;;;;;;;5.30;2.47;;;8.30;99.20;;;;;;5112430;28;20206;-88
2022/02/11 14:16:51;;;;;;;5.30;2.35;;;8.40;99.00;;;;;;5114631;28;20199;-88
2022/02/11 14:19:24;;;;;;;5.53;2.78;;;8.20;99.40;;;;;;5116485;28;20255;-88
2022/02/11 14:21:53;;;;;;;5.82;2.45;;;8.20;99.20;;;;;;5107870;28;20223;-88
2022/02/11 14:24:21;;;;;;;4.60;2.33;;;8.20;99.20;;;;;;5109242;28;20191;-87
2022/02/11 14:26:48;;;;;;;5.40;2.20;;;8.20;99.40;;;;;;5109369;28;20434;-88
2022/02/11 14:29:20;;;;;;;3.20;1.50;;;8.10;99.30;;;;;;5105646;28;20300;-88
2022/02/11 14:31:52;;;;;;;4.95;1.80;;;8.30;99.00;;;;;;5104427;28;20198;-86
2022/02/11 14:34:28;;;;;;;4.88;2.75;;;8.40;98.80;;;;;;5101530;28;20192;-88
2022/02/11 14:36:59;;;;;;;4.85;1.90;;;8.40;98.50;;;;;;5102426;28;20196;-88
2022/02/11 14:39:31;;;;;;;3.93;2.33;;;8.50;98.00;;;;;;5102025;28;20568;-88
2022/02/11 14:42:02;;;;;;;4.55;1.83;;;8.60;98.10;;;;;;5102919;28;20784;-88
2022/02/11 14:44:33;;;;;;;4.20;1.90;;;8.80;97.80;;;;;;5102122;28;20208;-87
2022/02/11 14:47:02;;;;;;;4.40;1.80;;;8.80;97.60;;;;;;5106297;28;20453;-88
2022/02/11 14:49:33;;;;;;;6.78;2.20;;;8.80;96.80;;;;;;5102124;28;20504;-89
2022/02/11 14:52:33;;;;;;;5.00;2.40;;;8.60;97.30;;;;;;5101195;28;20207;-89
2022/02/11 14:55:26;;;;;;;6.50;2.00;;;8.40;98.10;;;;;;5110686;28;20430;-90
2022/02/11 14:58:19;;;;;;;5.30;2.60;;;8.70;97.50;;;;;;5111111;28;20319;-89
2022/02/11 15:00:48;;;;;;;7.30;2.90;;;8.60;97.10;;;;;;5109277;28;20461;-89
2022/02/11 15:03:15;;;;;;;4.40;2.13;;;8.70;97.30;;;;;;5106302;28;20467;-89
2022/02/11 15:05:43;;;;;;;8.43;2.97;;;8.70;97.50;;;;;;5104966;28;20458;-89
2022/02/11 15:08:13;;;;;;;5.03;2.50;;;8.70;97.70;;;;;;5104116;28;20230;-90
2022/02/11 15:11:05;;;;;;;3.90;2.37;;;8.70;98.00;;;;;;5111477;28;20467;-90
2022/02/11 15:13:32;;;;;;;6.20;2.50;;;8.70;98.10;;;;;;5106855;28;20448;-88
2022/02/11 15:15:59;;;;;;;6.45;2.55;;;8.70;98.20;;;;;;5101213;28;20793;-89
2022/02/11 15:18:26;;;;;;;7.75;2.70;;;8.60;98.20;;;;;;5098875;28;20245;-88
2022/02/11 15:20:54;;;;;;;7.15;3.10;;;8.50;98.70;;;;;;5100874;28;20212;-88
2022/02/11 15:23:26;;;;;;;5.80;2.08;;;8.40;98.40;;;;;;5106689;28;20210;-89
2022/02/11 15:25:56;;;;;;;4.70;2.10;;;8.40;98.30;;;;;;5112974;28;20210;-88
2022/02/11 15:28:26;;;;;;;4.65;2.60;;;8.40;97.60;;;;;;5102761;28;20224;-89
2022/02/11 15:30:53;;;;;;;5.50;2.25;;;8.30;97.50;;;;;;5099362;28;20221;-88
2022/02/11 15:33:20;;;;;;;4.95;2.00;;;8.10;97.50;;;;;;5098523;28;20237;-88
2022/02/11 15:35:47;;;;;;;6.35;2.55;;;8.30;97.50;;;;;;5102490;28;20221;-89
2022/02/11 15:38:15;;;;;;;6.18;2.47;;;8.20;97.30;;;;;;5098637;28;20299;-89
2022/02/11 15:40:45;;;;;;;6.85;2.83;;;8.10;97.20;;;;;;5098223;28;20209;-87
2022/02/11 15:43:12;;;;;;;5.57;2.88;;;8.10;97.20;;;;;;5099115;28;20221;-88
2022/02/11 15:45:40;;;;;;;6.97;2.22;;;7.70;97.10;;;;;;5111412;28;20207;-88
2022/02/11 15:48:07;;;;;;;8.52;3.05;;;7.90;97.30;;;;;;5113290;28;20231;-88
2022/02/11 15:50:41;;;;;;;7.00;2.47;;;8.00;97.20;;;;;;5103331;28;20214;-88
2022/02/11 15:53:20;;;;;;;4.35;2.15;;;7.90;97.30;;;;;;5114500;28;20200;-88
2022/02/11 15:55:49;;;;;;;5.60;2.30;;;7.80;97.70;;;;;;5115714;28;20260;-89
2022/02/11 15:58:19;;;;;;;5.78;2.35;;;7.80;98.10;;;;;;5112164;28;20278;-88
2022/02/11 16:00:52;;;;;;;6.40;2.25;;;7.90;98.00;;;;;;5111577;28;20203;-88
2022/02/11 16:03:19;;;;;;;7.13;2.58;;;8.00;97.90;;;;;;5102914;28;20204;-87
2022/02/11 16:05:47;;;;;;;4.35;1.80;;;7.70;97.80;;;;;;5103457;28;20688;-88
2022/02/11 16:08:14;;;;;;;6.43;2.40;;;8.10;98.00;;;;;;5102665;28;20227;-88
2022/02/11 16:10:41;;;;;;;3.88;1.55;;;8.00;98.10;;;;;;5098767;28;20456;-89
2022/02/11 16:13:10;;;;;;;8.52;3.50;;;7.90;98.10;;;;;;5105479;28;20209;-89
2022/02/11 16:15:39;;;;;;;9.82;2.80;;;7.90;98.30;;;;;;5111711;28;20207;-90
2022/02/11 16:18:14;;;;;;;9.70;2.60;;;7.80;98.40;;;;;;5110806;28;20714;-86
2022/02/11 16:20:45;;;;;;;6.63;2.92;;;7.80;98.30;;;;;;5111492;28;20253;-87
2022/02/11 16:23:15;;;;;;;6.97;2.45;;;7.90;98.20;;;;;;5111692;28;20206;-88
2022/02/11 16:25:43;;;;;;;6.70;2.60;;;7.70;98.50;;;;;;5112774;28;20206;-89
2022/02/11 16:28:16;;;;;;;5.55;2.75;;;7.70;98.70;;;;;;5110187;28;20223;-88
2022/02/11 16:30:46;;;;;;;9.48;2.50;;;7.50;98.60;;;;;;5107420;28;20227;-87
2022/02/11 16:33:22;;;;;;;6.05;2.17;;;7.50;98.90;;;;;;5101255;28;20192;-88